WBGGWBKL

Guest
Details From WBGG - Kuching Intl
To WBKL - Labuan
Flight Number -
Tags generated
Created
Modified
Stats Distance 373 nm / 690 km
Max Altitude 35,000 ft / 10,668 m
Waypoints 5
Social Downloads 0
Likes 0
Share VATSIM

Download

Looking for another format? Having issues loading an existing format? Contact us
Advertisement - Login to hide

Notes

Basic altitude profile: - Ascent Rate: 2500ft/min - Ascent Speed: 250kts - Cruise Altitude: 35000ft - Cruise Speed: 420kts - Descent Rate: 1500ft/min - Descent Speed: 250kts Options: - Use NATs: yes - Use PACOTS: yes - Use low airways: yes - Use high airways: yes

Route

WBGG PILAX G580 VMI WBKL

ID Type Via Altitude Latitude Longitude Leg Dist Tot Dist Heading (true) Name
O WBGG APT - 0 ft / 0 m 1.48470˚ 110.34693˚ - 0 nm - Kuching Intl
PILAX FIX - 27,500 ft / 8,382 m 2.31889˚ 111.38528˚ 79 nm 79 nm 51° / 51° -
SARVO FIX G580 (AWY-HI) 35,000 ft / 10,668 m 3.44167˚ 112.83611˚ 110 nm 190 nm 52° / 52° -
VMI VOR G580 (AWY-HI) 19,300 ft / 5,883 m 4.33778˚ 113.99419˚ 87 nm 277 nm 52° / 52° MIRI VOR-DME
O WBKL APT - 0 ft / 0 m 5.30069˚ 115.25018˚ 94 nm 372 nm 52° / 52° Labuan

Altitude Profile

Advertisement - Login to hide

Weather


0- 5 10 15 20 25 30 35+ Temperature / ° C

Clouds and Precipitation
Forecast for 2018-05-23 12:00 UTC. Updated 37 minutes ago

Ground ~20,000 ft ~40,000 ft Winds

WBGG

Details ICAO WBGG (KCH)
Name Kuching Intl
Region Brunei and Malaysia
Timezone Asia/Kuching (UTC+8.0)
Stats Elevation 89 ft / 27 m (AMSL)
Location 1.484698° 110.346932°
Runways 1
Magnetic Variation 0.334° E

METAR

WBGG 231130Z 34003KT 300V020 9999 SCT020 BKN150 28/25 Q1008 NOSIG

Decode

TAF

Not found

Departure Runways

ID Width Length Bearing (true) Bearing (mag) Surface Threshold Offset Overrun Length
07 151 ft / 46 m 8,012 ft / 2,442 m 68.26° 67.93° Asphalt 0 ft / 0 m 0 ft / 0 m
25 151 ft / 46 m 8,012 ft / 2,442 m 248.26° 247.93° Asphalt 320 ft / 98 m 0 ft / 0 m

WBKL

Details ICAO WBKL (LBU)
Name Labuan
Region Brunei and Malaysia
Timezone Asia/Kuching (UTC+8.0)
Stats Elevation 101 ft / 31 m (AMSL)
Location 5.300685° 115.250183°
Runways 1
Magnetic Variation 0.311° W

METAR

WBKL 231100Z 01004KT 330V060 9999 FEW012 BKN140 BKN290 29/26 Q1006 RETSRA

Decode

TAF

Not found

Destination Runways

ID Width Length Bearing (true) Bearing (mag) Surface Threshold Offset Overrun Length
14 148 ft / 45 m 7,518 ft / 2,292 m 145.81° 146.12° Asphalt 0 ft / 0 m 1,005 ft / 306 m
32 148 ft / 45 m 7,518 ft / 2,292 m 325.81° 326.12° Asphalt 0 ft / 0 m 940 ft / 287 m

Approach Navaids

Runway Type Ident Frequency Range Bearing (true) Bearing (mag) Slope Elevation
14 Localiser ILB 111.10 MHz 18 nm / 33 km 145.82° 146.14° - 101 ft / 31 m (AMSL)
14 Glidescope ILB 111.10 MHz 10 nm / 19 km 145.81° 146.12° 3.00° 101 ft / 31 m (AMSL)

Popular Alternatives